Memphis, Tennessee
Current Conditions -  °F | °C
As of 11:54 AM on Sunday 21 Dec 2014 (Local Time) from KMEM Reporting Station
Scattered Clouds Scattered Clouds  
Wind Chill: 53°   Ceiling: Unl
Heat Index: 53°   Visibility: 10mi
Dew Point: 30°   Wind: 5mph
Humidity: 41%   Direction: 130°SE
Pressure: 30.13"   Gusts: NA
Location:  35.15°N, 90.05°W
Report Text: KMEM 211754Z 13004KT 10SM SCT150 12/M01 A3013 RMK AO2 SLP202 T01171011 10117 20000 58030 $
Loading
Personal Weather Stations






























Interactive Weather Map New forecast layout! Learn more

10-Day Weather Forecast

Advertisements
Track Severe Weather on mobile